Koji Ueda

Olheiro - Omiya Ardija
3 Dez 2028
Domingo
Processo

Personalidade

Adaptabilidade (18) Ambição (19) Controvérsia (17) Lealdade (3) Pressão (2) Profissionalismo (10) Espírito Esportivo (10) Temperamento (19)

Perfil

Estilo de Treinamento Democrático
Licença Continental C
Determinação 9
Gestão de Pessoas 10
Motivação 6
Disciplina 11
Satisfação no Trabalho
100%
Fadiga
0%
Função Olheiro
Salário 60.0K p/s
Contrato 14.03.2030

Desempenho

Comportamento Bom
Eficácia do Treinamento
35%
Desenvolvimento do Jogador
45%
Prevenção de Lesões
20%
Implementação Tática
40%

Eventos Recentes

Avaliou um jogador agora
Participou de uma reunião de recrutamento agora
Recomendou um alvo de transferência agora
Avaliou um jogador agora
Avaliou um jogador 7d atrás
Avaliou um jogador 7d atrás
Avaliou um jogador 7d atrás
Avaliou um jogador 7d atrás

Monitorando agora

147
Jogador Clube Status Habilidade Confiança Observado Última observação Último voto
Chukwuemeka Obioma Abia Warriors Ativo 109 / 86 40% 3 02.12.2028 -
Yota Komi Kashiwa Reysol Ativo 122 / 115 40% 3 02.12.2028 -
Nicolás Ferreira Wanderers Ativo 115 / 110 40% 7 01.12.2028 -
Luciano Cosentino Wanderers Ativo 129 / 119 40% 5 01.12.2028 -
Chineme Chinonso Ikorodu City Ativo 95 / 93 40% 1 01.12.2028 -
Ruyery Blanco Alianza Petrolera Ativo 115 / 115 40% 2 28.11.2028 -
Esteban Obregón Montevideo City Torque Ativo 113 / 110 40% 9 28.11.2028 -
Diego Herazo Independiente Medellin Ativo 112 / 101 40% 2 28.11.2028 -
Andrés Carreño Aguilas Doradas Ativo 115 / 102 40% 3 27.11.2028 -
Shunta Araki Vegalta Sendai Ativo 114 / 109 40% 3 26.11.2028 -
Juan David Rueda Alianza Petrolera Ativo 120 / 100 40% 2 26.11.2028 -
Fabri Vitória Ativo 119 / 116 40% 2 25.11.2028 -
Juan Hurtado Alianza Petrolera Ativo 133 / 119 40% 3 23.11.2028 -
James Emo Rangers International Ativo 87 / 80 40% 2 23.11.2028 -
Lisandro Cabrera Maipú Ativo 121 / 122 40% 2 22.11.2028 -
Jeinner Fuentes Deportes Tolima Ativo 116 / 120 40% 1 22.11.2028 -
Julian Herrera Cortulua Ativo 126 / 126 40% 7 21.11.2028 -
Alejandro Piedrahita Deportivo Pereira Ativo 130 / 118 40% 1 21.11.2028 -
Waheed Adebayo Rangers International Ativo 96 / 104 40% 1 21.11.2028 -
Daniel Barrea Godoy Cruz Ativo 123 / 124 40% 3 18.11.2028 -
Nicolás Medina Atlanta Ativo 109 / 102 40% 1 17.11.2028 -
Diego Castillo Aguilas Doradas Ativo 109 / 97 40% 6 16.11.2028 -
Jhonier Blanco Fortaleza CEIF Ativo 110 / 108 40% 2 16.11.2028 -
Enzo González Defensores Ativo 107 / 116 40% 5 15.11.2028 -
Alejo Cruz Juventud Ativo 130 / 113 40% 2 15.11.2028 -
Mauricio Márquez Caracas Ativo 100 / 98 40% 3 13.11.2028 -
Patrick Preciado Deportivo Pasto Ativo 116 / 114 40% 4 13.11.2028 -
Ramiro Ruiz Rodríguez Atlético Tucumán Ativo 117 / 117 40% 1 11.11.2028 -
Jorge Obregón Deportivo Pasto Ativo 121 / 119 40% 2 10.11.2028 -
Adeshina Gata Kwara United Ativo 84 / 95 40% 1 10.11.2028 -
Nicolás Cordero Aldosivi Ativo 125 / 125 40% 1 07.11.2028 -
Marco Miori Alvarado Ativo 121 / 113 40% 1 07.11.2028 -
Alexander Díaz Deportivo Riestra Ativo 126 / 128 40% 4 04.11.2028 -
José Balza Deportivo Tachira Ativo 112 / 106 40% 1 02.11.2028 -
Werik Popo Avispa Fukuoka Ativo 116 / 112 40% 2 01.11.2028 -
Samuel Anakwe Remo Stars Ativo 103 / 92 40% 1 01.11.2028 -
Agustín Rodríguez Juventud Ativo 133 / 136 40% 4 31.10.2028 -
Franco García Molde Ativo 111 / 109 40% 1 31.10.2028 -
Leandro Suhr Boston River Ativo 115 / 106 40% 2 28.10.2028 -
Jonás Luna Wanderers Ativo 117 / 115 40% 2 28.10.2028 -
Lyle Foster Rosenborg Ativo 144 / 139 40% 1 28.10.2028 -
Rodrigo Auzmendi Banfield Ativo 114 / 133 40% 1 27.10.2028 -
José Barreto Quilmes Ativo 113 / 123 40% 2 26.10.2028 -
Sunusi Ibrahim Vegalta Sendai Ativo 116 / 110 40% 1 26.10.2028 -
Santiago Sala Güemes Ativo 114 / 113 40% 4 25.10.2028 -
Miguel Pereira Persebaya Ativo 126 / 116 40% 1 25.10.2028 -
Emiliano Gómez Boston River Ativo 115 / 112 40% 4 19.10.2028 -
Facundo Krüger Temperley Ativo 121 / 110 40% 1 19.10.2028 -
Jhon Murillo Jaguares Ativo 124 / 107 40% 1 18.10.2028 -
Michael Nike Patriotas Ativo 101 / 97 40% 2 16.10.2028 -
Sebastián Cocimano Nueva Chicago Ativo 115 / 114 40% 1 16.10.2028 -
Mauro Valiente Estudiantes Ativo 110 / 117 40% 3 15.10.2028 -
Okardi Inikurogha Bayelsa United Ativo 104 / 101 40% 2 15.10.2028 -
Gianluca Pugliese Güemes Ativo 122 / 119 40% 3 14.10.2028 -
Agustín Gallo Tristán Suárez Ativo 122 / 115 40% 1 11.10.2028 -
Tomás Jerez San Miguel Ativo 113 / 116 40% 1 08.10.2028 -
Timothy Zechariah Rivers United Ativo 98 / 91 40% 2 07.10.2028 -
Richard Figueroa Deportivo Lara Ativo 115 / 109 40% 1 08.09.2028 -
Kelvin Flórez Deportes Tolima Ativo 116 / 126 40% 2 05.09.2028 -
Augusto Berrondo Tristán Suárez Ativo 115 / 119 40% 1 05.09.2028 -
Jorge Rivaldo Real Cartagena Ativo 129 / 113 40% 2 04.09.2028 -
Francesco Petito Dolomiti Bellunesi Ativo 101 / 114 40% 3 19.08.2028 -
Vanja Vlahović Spezia Ativo 133 / 121 40% 1 19.08.2028 -
Simone Mazzocchi Cosenza Ativo 134 / 111 40% 5 18.08.2028 -
Guillaume Furrer Lecco Ativo 110 / 102 40% 3 18.08.2028 -
Adam Jakobsen Castellón Ativo 124 / 124 40% 10 14.08.2028 -
Kaoru Osako Gamba Osaka Negociando 91 / 103 72% 1 14.08.2028 -
Mattia Iori Lumezzane Ativo 107 / 114 40% 1 13.08.2028 -
Luca Mazzeo Picerno Ativo 114 / 112 40% 1 12.08.2028 -
Jack Vale Sorrento Ativo 98 / 116 40% 4 10.08.2028 -
Camillo Tavernelli Arezzo Ativo 121 / 115 40% 3 10.08.2028 -
Liam Cullen Swansea City Ativo 128 / 131 40% 5 09.08.2028 -
Carlos Gugenheim Grimsby Town Ativo 110 / 105 40% 3 09.08.2028 -
Kylian Kouassi Colchester United Ativo 102 / 96 40% 5 08.08.2028 -
Luca Vido Union Brescia Ativo 117 / 105 40% 1 08.08.2028 -
Johnny Kenny Preston Ativo 126 / 132 40% 6 07.08.2028 -
Tyrese Shade Burton Albion Ativo 103 / 118 40% 5 07.08.2028 -
Aaron Collins Milton Keynes Dons Ativo 121 / 126 40% 1 07.08.2028 -
Job Ochieng Real Sociedad Ativo 119 / 104 40% 5 20.07.2028 -
Harvey Blair Portsmouth Ativo 133 / 123 40% 1 20.07.2028 -
Will Davies Fleetwood Town Ativo 104 / 92 40% 1 18.07.2028 -
Dale Taylor Blackpool Ativo 125 / 127 40% 2 16.07.2028 -
Matteo Rover Reggiana Ativo 129 / 115 40% 2 16.07.2028 -
Calum Kavanagh Oldham Athletic Ativo 107 / 110 40% 4 15.07.2028 -
Justin Obikwu Queens Park Rangers Ativo 105 / 100 40% 6 15.07.2028 -
Emanuele Schimmenti Potenza Ativo 129 / 110 40% 1 15.07.2028 -
Tyler Roberts Mansfield Town Ativo 102 / 106 40% 1 14.07.2028 -
Tyler Walton Bromley Ativo 99 / 108 40% 5 13.07.2028 -
Ole Romeny Oxford United Ativo 125 / 122 40% 4 13.07.2028 -
Marco Tumminello Benevento Ativo 112 / 109 40% 4 13.07.2028 -
Sam Dalby Bolton Wanderers Ativo 113 / 119 40% 4 12.07.2028 -
Álvaro García Castellón Ativo 120 / 134 40% 5 11.07.2028 -
Danny Butterworth Accrington Stanley Ativo 97 / 108 40% 2 09.07.2028 -
Sam Nombe Milton Keynes Dons Ativo 118 / 116 40% 10 08.07.2028 -
Emanuele Scipioni Monopoli Ativo 119 / 110 40% 1 08.07.2028 -
Ante Crnac Bristol Rovers Ativo 125 / 129 40% 4 05.07.2028 -
Dany Jean Torreense Ativo 119 / 106 40% 5 03.07.2028 -
Ekain Orobengoa Real Sociedad Ativo 101 / 118 40% 1 03.07.2028 -
Alassana Jatta Notts County Ativo 112 / 104 40% 1 01.07.2028 -
Ryan Graydon Salford City Ativo 114 / 107 40% 5 30.06.2028 -
Alan Cisnero Exeter City Ativo 105 / 100 40% 1 30.06.2028 -
Admir Bristrić Cambridge United Ativo 122 / 118 40% 2 26.06.2028 -
George Lloyd Shrewsbury Town Ativo 103 / 101 40% 1 26.06.2028 -
Rayan Kolli Queens Park Rangers Ativo 124 / 116 40% 1 26.06.2028 -
Josh Stokes Bristol City Ativo 116 / 132 40% 3 25.06.2028 -
Layton Stewart Barnet Ativo 110 / 111 40% 3 22.06.2028 -
Luca Moro Padova Ativo 136 / 121 40% 1 22.06.2028 -
Álex Millán Leganés Ativo 109 / 113 40% 2 20.06.2028 -
Manuel De Luca Cremonese Ativo 136 / 127 40% 3 19.06.2028 -
Louis Appéré Cambridge United Ativo 115 / 94 40% 1 16.06.2028 -
Joshua Ajala Walsall Ativo 110 / 106 40% 4 15.06.2028 -
Mees Rijks Bristol Rovers Ativo 128 / 116 40% 5 15.06.2028 -
Anthony Scully Shrewsbury Town Ativo 112 / 97 40% 4 13.06.2028 -
Armstrong Oko-Flex Levski Ativo 123 / 129 40% 5 11.06.2028 -
Olaf Kobacki Sheffield Wednesday Ativo 106 / 124 40% 4 11.06.2028 -
Jalen Blesa Oliveirense Ativo 133 / 118 40% 4 11.06.2028 -
Kaye Furo Reading Ativo 134 / 137 40% 2 09.06.2028 -
Fábio Jaló Barnsley Ativo 110 / 101 40% 1 07.06.2028 -
Miro Arsenal Tula Ativo 122 / 116 40% 11 05.06.2028 -
Timur Suleimanov Nizhniy Novgorod Ativo 119 / 111 40% 3 05.06.2028 -
Rocco Vata Watford Ativo 131 / 121 40% 1 29.05.2028 -
Kleis Bozhanaj Modena Ativo 128 / 126 40% 3 25.05.2028 -
Jorge Delgado Cultural Leonesa Ativo 109 / 125 40% 3 24.05.2028 -
Fernando Penafiel Ativo 128 / 134 40% 4 20.05.2028 -
Jorge Cabezas Hurtado Watford Ativo 115 / 115 40% 4 15.05.2028 -
Kuki Zalazar Ceuta Ativo 125 / 119 40% 1 05.05.2028 -
Gabriele Gori Ascoli Ativo 111 / 103 40% 1 03.05.2028 -
Christian Saydee Wigan Athletic Ativo 128 / 109 40% 1 28.04.2028 -
Pau Sans Zaragoza Ativo 120 / 122 40% 1 28.04.2028 -
Ondřej Lingr Korona Ativo 135 / 122 40% 2 26.04.2028 -
Zé Leite Moreirense Ativo 114 / 127 40% 2 24.04.2028 -
David Ankeye Zeleznicar Pancevo Ativo 118 / 112 40% 1 23.04.2028 -
Vyacheslav Grulev Nizhniy Novgorod Ativo 109 / 117 40% 1 17.04.2028 -
Wendel Silva Santa Clara Ativo 122 / 115 40% 2 14.04.2028 -
Bashar Musa US Forces Armees Ativo 95 / 103 40% 2 12.04.2028 -
Dawda Camara Alverca Ativo 131 / 121 40% 1 12.04.2028 -
Figueiredo Alverca Ativo 145 / 131 40% 1 05.04.2028 -
Adam Idah Swansea City Ativo 126 / 125 40% 1 04.04.2028 -
Matheus Davó Maccabi Netanya Ativo 134 / 111 40% 1 02.04.2028 -
Seidu Basit Ashanti Gold Ativo 102 / 89 40% 2 01.04.2028 -
Guilherme Neiva AVS Ativo 104 / 117 40% 1 29.03.2028 -
André Lacximicant Estoril Praia Ativo 127 / 111 40% 1 24.03.2028 -
Brayan Gil Baltika Ativo 133 / 116 40% 2 22.03.2028 -
Juan Manuel Boselli Rubin Ativo 128 / 119 40% 1 21.03.2028 -
Wesley Pomba Rukh Ativo 112 / 116 40% 1 20.03.2028 -
Kahiser Lenis Ceará Ativo 127 / 117 40% 1 18.03.2028 -
Yuji Ono Albirex Niigata Ativo 104 / 108 65% 1 22.02.2027 Aprovar